Beatty, Nevada Weather observations

Data are for observation ending at time listed.
 Day   Time    Ave.   Ave.  Ave.  Vector   Max.   Stn.    Total    Solar   Ave.  
  of    of     Air    Rel.  Wind   Wind    Wind   Baro.  Precip.   Rad.    Soil  
Year   Day     Temp.  Hum.  Speed  Dir.    Gust   Pres.                    Temp. 
2014   (PST)    F      %     mph   deg.    mph     mb.     in.     W/m2     F   
------------------------------------------------------------------------------
 206    6:00   76.5    17    0.3   210      1.2   897.9    0.00     110    89.7
 206    6:10   76.8    20    0.1   337      1.3   897.9    0.00     174    89.6
 206    6:20   79.6    16    0.6   227      2.0   898.0    0.00     205    89.6
 206    6:30   80.4    16    0.7   158      2.1   898.0    0.00     187    89.5
 206    6:40   82.5    15    0.0   148      1.1   898.1    0.00      72    89.5
 206    6:50   84.7    16    0.0   310      1.2   898.1    0.00      35    89.4
 206    7:00   83.7    14    0.8   101      2.1   898.1    0.00      35    89.3
 206    7:10   83.7    13    1.0    77      2.2   898.1    0.00      43    89.3
 206    7:20   84.4    14    0.5   335      1.5   898.2    0.00      29    89.3
 206    7:30   85.4    12    1.0    39      2.3   898.2    0.00      59    89.2
 206    7:40   86.6    11    0.8   103      2.8   898.3    0.00     147    89.2
 206    7:50   87.3    11    0.4    88      2.6   898.4    0.00     404    89.2
 206    8:00   88.4    11    0.7   303      2.2   898.3    0.00     466    89.1
 206    8:10   90.3    10    2.3    83      4.7   898.3    0.00     492    89.0
 206    8:20   91.0    10    1.9    66      4.8   898.3    0.00     522    89.0
 206    8:30   92.1     9    1.4   345      3.1   898.3    0.00     546    88.9
 206    8:40   92.8     9    1.3   290      2.7   898.2    0.00     569    88.9
 206    8:50   94.6     9    1.3   188      4.7   898.2    0.00     595    88.8
 206    9:00   96.0     8    1.8   194      5.9   898.1    0.00     616    88.7
 206    9:10   96.0     8    4.9   183     10.9   898.1    0.00     648    88.7
 206    9:20   95.9     7    5.7   197     12.9   898.1    0.00     657    88.6
 206    9:30   96.0     7    6.3   189     12.3   898.1    0.00     613    88.6
 206    9:40   97.0     7    6.1   198     11.3   898.0    0.00     688    88.5
 206    9:50   97.1     6    7.2   170     16.1   898.1    0.00     700    88.5
 206   10:00   97.6     6    6.6   170     13.0   897.9    0.00     716    88.4
 206   10:10   98.1     6    6.4   181     14.8   897.8    0.00     730    88.4
 206   10:20   99.2     6    6.9   186     14.5   897.8    0.00     745    88.3
 206   10:30   99.2     5    6.7   167     13.8   897.7    0.00     758    88.3
 206   10:40   99.6     5    9.2   173     17.3   897.6    0.00     768    88.3
 206   10:50   99.6     5    9.5   163     19.2   897.6    0.00     773    88.2
 206   11:00  100.5     5    8.3   196     15.6   897.5    0.00     784    88.2
 206   11:10  100.6     5    7.5   211     16.7   897.5    0.00     784    88.2
 206   11:20  101.7     5    7.5   200     14.5   897.5    0.00     798    88.2
 206   11:30  100.8     5    8.8   188     16.1   897.5    0.00     799    88.2
 206   11:40  101.0     5    8.6   197     16.7   897.4    0.00     801    88.3
 206   11:50  101.3     5    8.7   207     18.4   897.4    0.00     802    88.3
 206   12:00  100.9     5    9.3   220     18.6   897.3    0.00     778    88.4
 206   12:10  102.1     5    8.6   194     17.2   897.3    0.00     805    88.4
 206   12:20  102.1     5    7.1   209     14.5   897.2    0.00     806    88.5
 206   12:30  101.5     5    9.4   207     19.3   897.1    0.00     741    88.5
 206   12:40  102.1     5   10.4   205     20.1   897.1    0.00     752    88.6
 206   12:50  102.1     5    9.3   216     17.0   897.1    0.00     793    88.7
 206   13:00  102.7     5    6.0   203     10.7   896.9    0.00     782    88.8
 206   13:10  103.3     5   10.2   198     18.3   896.8    0.00     774    88.9
 206   13:20  103.1     5   10.8   201     21.6   896.8    0.00     765    89.0
 206   13:30  102.7     5    9.6   179     19.6   896.7    0.00     754    89.1
 206   13:40  103.5     5    8.0   204     18.2   896.5    0.00     741    89.2
 206   13:50  102.7     5    8.0   216     18.4   896.4    0.00     723    89.3
 206   14:00  102.2     5    9.9   229     21.9   896.4    0.00     713    89.4
 206   14:10  102.8     5    8.5   193     18.7   896.3    0.00     613    89.5
 206   14:20  103.2     5    6.5   208     12.3   896.2    0.00     671    89.6
 206   14:30  103.5     5    9.2   214     18.3   896.1    0.00     666    89.7
 206   14:40  102.9     5    9.4   196     18.0   896.1    0.00     647    89.8
 206   14:50  102.7     5    9.6   208     18.8   895.9    0.00     627    90.0
 206   15:00  103.0     5    8.7   220     16.5   895.8    0.00     599    90.1
 206   15:10  102.7     5    8.0   206     15.1   895.7    0.00     582    90.2
 206   15:20  103.0     5    9.2   212     14.2   895.7    0.00     566    90.2
 206   15:30  103.5     5    7.4   182     15.4   895.7    0.00     545    90.3
 206   15:40  103.4     5    6.6   222     13.8   895.6    0.00     547    90.5
 206   15:50  102.6     5    9.0   221     15.1   895.5    0.00     486    90.6
 206   16:00  101.8     6    8.2   228     14.7   895.5    0.00     404    90.7
 206   16:10  102.3     6    7.1   219     12.5   895.5    0.00     456    90.8
 206   16:20  103.1     6    8.0   204     14.9   895.3    0.00     494    90.8
 206   16:30  103.3     6   10.3   218     17.7   895.2    0.00     484    90.9
 206   16:40  102.7     7    9.2   190     15.8   895.3    0.00     467    91.0
 206   16:50  101.8     9    9.6   163     19.3   895.2    0.00     412    91.1
 206   17:00  102.0     8    8.9   196     18.3   895.1    0.00     246    91.2
 206   17:10  100.0    10   10.7   191     24.0   895.2    0.00     133    91.2
 206   17:20   99.1    11    7.9   176     15.8   895.2    0.00      95    91.3
 206   17:30   98.1    12    9.4   168     19.1   895.3    0.00      72    91.3
 206   17:40   97.5    12    8.5   174     19.7   895.4    0.00      53    91.4
 206   17:50   97.1    12   10.7   162     18.7   895.5    0.00      34    91.5
 206   18:00   96.6    13    9.0   170     20.3   895.5    0.00      27    91.5
 206   18:10   96.3    12    8.0   172     14.3   895.6    0.00      21    91.6
 206   18:20   96.1    12   11.2   160     18.3   895.7    0.00      18    91.6
 206   18:30   95.6    13    8.6   164     18.0   895.8    0.00      13    91.7
 206   18:40   95.6    12    9.7   161     21.7   896.0    0.00      11    91.7
 206   18:50   95.3    13    8.4   173     21.9   896.0    0.00       7    91.7
 206   19:00   95.1    13    8.8   162     18.1   896.1    0.00       4    91.7
 206   19:10   94.9    13    9.1   160     18.1   896.2    0.00       2    91.7
 206   19:20   94.8    14    8.9   161     17.2   896.3    0.00       0    91.8
 206   19:30   94.5    14    8.4   162     15.7   896.5    0.00       0    91.8
 206   19:40   94.0    16    7.6   161     14.8   896.6    0.00       0    91.8
 206   19:50   93.8    16    7.8   163     13.7   896.7    0.00       0    91.9
 206   20:00   93.5    17    7.3   162     16.5   896.9    0.00       0    91.9
 206   20:10   93.4    17    8.0   163     16.9   897.1    0.00       0    91.9
 206   20:20   93.2    18    8.8   163     17.1   897.2    0.00       0    91.9
 206   20:30   93.2    18    8.6   162     20.0   897.4    0.00       0    92.0
 206   20:40   93.1    17    9.3   161     20.9   897.5    0.00       0    92.0
 206   20:50   93.0    17    8.4   159     15.6   897.5    0.00       0    91.9
 206   21:00   92.9    16    8.8   165     14.5   897.5    0.00       0    91.9
 206   21:10   92.8    16    6.8   163     11.8   897.4    0.00       0    91.9
 206   21:20   92.8    15    7.1   165     17.2   897.3    0.00       0    91.9
 206   21:30   92.8    15    7.3   163     14.4   897.4    0.00       0    91.9
 206   21:40   92.6    15    5.8   155     11.5   897.5    0.00       0    91.9
 206   21:50   92.5    14    6.5   164     12.6   897.6    0.00       0    91.9
 206   22:00   92.3    14    5.9   162     12.0   897.6    0.00       0    91.9
 206   22:10   92.1    14    6.6   166     14.6   897.7    0.00       0    91.9
 206   22:20   92.2    13    6.9   158     13.5   897.8    0.00       0    91.9
 206   22:30   92.2    13    6.4   160     13.7   897.9    0.00       0    91.9
 206   22:40   92.3    12    5.3   166     12.4   897.9    0.00       0    91.8
 206   22:50   92.0    12    5.1   166     11.8   898.0    0.00       0    91.8
 206   23:00   91.8    12    3.6   170      8.7   898.1    0.00       0    91.8
 206   23:10   90.1    12    2.5   255      6.4   898.1    0.00       0    91.8
 206   23:20   88.0    13    2.7   228      6.2   898.2    0.00       0    91.7
 206   23:30   87.4    13    1.6   109      4.7   898.3    0.00       0    91.7
 206   23:40   86.8    13    2.2    54      4.6   898.3    0.00       0    91.7
 206   23:50   85.3    14    1.7   295      6.1   898.5    0.00       0    91.6
 207    0:00   84.6    14    1.1   286      3.1   898.5    0.00       0    91.6
 207    0:10   83.8    14    1.4    50      2.9   898.6    0.00       0    91.6
 207    0:20   82.2    16    1.4    28      3.1   898.6    0.00       0    91.6
 207    0:30   80.8    17    1.9    56      3.6   898.7    0.00       0    91.6
 207    0:40   80.4    16    1.9    59      3.9   898.7    0.00       0    91.5
 207    0:50   80.8    15    1.5    52      3.7   898.7    0.00       0    91.5
 207    1:00   80.2    16    1.2     9      2.1   898.7    0.00       0    91.5
 207    1:10   79.1    16    2.0    25      3.6   898.7    0.00       0    91.4
 207    1:20   78.1    18    1.7   358      2.3   898.7    0.00       0    91.4
 207    1:30   77.2    18    1.2    39      3.2   898.7    0.00       0    91.3
 207    1:40   76.7    18    1.7    40      3.8   898.7    0.00       0    91.3
 207    1:50   76.3    18    1.9    57      3.6   898.7    0.00       0    91.3
 207    2:00   76.4    18    1.8    36      3.7   898.7    0.00       0    91.3
 207    2:10   75.3    18    1.5    47      3.9   898.8    0.00       0    91.3
 207    2:20   74.3    19    1.7    35      3.4   898.8    0.00       0    91.2
 207    2:30   73.8    20    2.0    40      4.5   898.9    0.00       0    91.2
 207    2:40   73.2    20    2.3    72      4.7   899.0    0.00       0    91.2
 207    2:50   74.0    19    1.2    43      3.1   899.0    0.00       0    91.1
 207    3:00   73.7    20    1.5    14      2.9   899.1    0.00       0    91.1
 207    3:10   71.8    21    1.5    52      3.4   899.2    0.00       0    91.1
 207    3:20   70.7    22    2.0    54      3.8   899.2    0.00       0    91.1
 207    3:30   71.3    21    1.7    33      3.7   899.3    0.00       0    91.0
 207    3:40   70.0    22    1.9    60      3.7   899.4    0.00       0    91.0
 207    3:50   69.4    22    2.0    52      4.1   899.5    0.00       0    91.0
 207    4:00   69.5    22    1.8    65      3.4   899.6    0.00       0    90.9
 207    4:10   69.2    22    1.9    68      3.7   899.7    0.00       0    90.9
 207    4:20   69.2    22    1.4    49      3.1   899.8    0.00       0    90.8
 207    4:30   68.7    23    2.6    66      4.7   899.9    0.00       0    90.8
 207    4:40   68.7    23    2.0    56      4.4   900.0    0.00       0    90.8
 207    4:50   69.2    22    1.7    62      3.5   900.0    0.00       0    90.7
 207    5:00   69.2    22    2.2    75      5.4   900.2    0.00       4    90.7
 207    5:10   69.1    22    2.4    71      4.5   900.3    0.00       7    90.6
 207    5:20   69.3    22    2.0    70      4.5   900.4    0.00      13    90.6
 207    5:30   69.7    22    2.1    66      4.1   900.5    0.00      31    90.6
 207    5:40   71.1    22    2.0    77      4.2   900.6    0.00      82    90.5
 207    5:50   74.0    19    2.1    32      4.5   900.7    0.00      90    90.4

Return to Beatty, Nevada graphs page.


Western Regional Climate Center,wrcc@dri.edu